sensor_id;sensor_type;location;lat;lon;timestamp;temperature;humidity
75824;DHT22;64457;51.976;9.834;2024-02-15T00:00:59;15.00;99.90
75824;DHT22;64457;51.976;9.834;2024-02-15T00:03:28;14.90;99.90
75824;DHT22;64457;51.976;9.834;2024-02-15T00:05:57;15.00;99.90
75824;DHT22;64457;51.976;9.834;2024-02-15T00:08:25;15.10;99.90
75824;DHT22;64457;51.976;9.834;2024-02-15T00:10:54;15.00;99.90
75824;DHT22;64457;51.976;9.834;2024-02-15T00:13:21;14.90;99.90
75824;DHT22;64457;51.976;9.834;2024-02-15T00:15:49;14.90;99.90
75824;DHT22;64457;51.976;9.834;2024-02-15T00:18:18;14.90;99.90
75824;DHT22;64457;51.976;9.834;2024-02-15T00:20:47;14.90;99.90
75824;DHT22;64457;51.976;9.834;2024-02-15T00:23:14;14.90;99.90
75824;DHT22;64457;51.976;9.834;2024-02-15T00:25:43;14.80;99.90
75824;DHT22;64457;51.976;9.834;2024-02-15T00:28:11;14.70;99.90
75824;DHT22;64457;51.976;9.834;2024-02-15T00:30:38;14.60;99.90
75824;DHT22;64457;51.976;9.834;2024-02-15T00:33:06;14.70;99.90
75824;DHT22;64457;51.976;9.834;2024-02-15T00:35:34;14.60;99.90
75824;DHT22;64457;51.976;9.834;2024-02-15T00:38:03;14.60;99.90
75824;DHT22;64457;51.976;9.834;2024-02-15T00:40:32;14.70;99.90
75824;DHT22;64457;51.976;9.834;2024-02-15T00:43:00;14.70;99.90
75824;DHT22;64457;51.976;9.834;2024-02-15T00:45:28;14.70;99.90
75824;DHT22;64457;51.976;9.834;2024-02-15T00:47:56;14.50;99.90
75824;DHT22;64457;51.976;9.834;2024-02-15T00:50:23;14.50;99.90
75824;DHT22;64457;51.976;9.834;2024-02-15T00:52:51;14.50;99.90
75824;DHT22;64457;51.976;9.834;2024-02-15T00:55:20;14.60;99.90
75824;DHT22;64457;51.976;9.834;2024-02-15T00:57:48;14.60;99.90
75824;DHT22;64457;51.976;9.834;2024-02-15T01:00:16;14.60;99.90
75824;DHT22;64457;51.976;9.834;2024-02-15T01:02:44;14.60;99.90
75824;DHT22;64457;51.976;9.834;2024-02-15T01:05:13;14.60;99.90
75824;DHT22;64457;51.976;9.834;2024-02-15T01:07:41;14.70;99.90
75824;DHT22;64457;51.976;9.834;2024-02-15T01:10:09;14.60;99.90
75824;DHT22;64457;51.976;9.834;2024-02-15T01:12:38;14.60;99.90
75824;DHT22;64457;51.976;9.834;2024-02-15T01:15:06;14.70;99.90
75824;DHT22;64457;51.976;9.834;2024-02-15T01:17:34;14.50;99.90
75824;DHT22;64457;51.976;9.834;2024-02-15T01:20:02;14.40;99.90
75824;DHT22;64457;51.976;9.834;2024-02-15T01:22:32;14.50;99.90
75824;DHT22;64457;51.976;9.834;2024-02-15T01:25:00;14.70;99.90
75824;DHT22;64457;51.976;9.834;2024-02-15T01:27:28;14.60;99.90
75824;DHT22;64457;51.976;9.834;2024-02-15T01:29:57;14.50;99.90
75824;DHT22;64457;51.976;9.834;2024-02-15T01:32:25;14.50;99.90
75824;DHT22;64457;51.976;9.834;2024-02-15T01:34:53;14.60;99.90
75824;DHT22;64457;51.976;9.834;2024-02-15T01:37:20;14.80;99.90
75824;DHT22;64457;51.976;9.834;2024-02-15T01:39:50;14.80;99.90
75824;DHT22;64457;51.976;9.834;2024-02-15T01:42:18;14.70;99.90
75824;DHT22;64457;51.976;9.834;2024-02-15T01:44:46;14.60;99.90
75824;DHT22;64457;51.976;9.834;2024-02-15T01:47:17;14.60;99.90
75824;DHT22;64457;51.976;9.834;2024-02-15T01:49:46;14.50;99.90
75824;DHT22;64457;51.976;9.834;2024-02-15T01:52:15;14.60;99.90
75824;DHT22;64457;51.976;9.834;2024-02-15T01:54:44;14.50;99.90
75824;DHT22;64457;51.976;9.834;2024-02-15T01:57:13;14.20;99.90
75824;DHT22;64457;51.976;9.834;2024-02-15T01:59:40;14.20;99.90
75824;DHT22;64457;51.976;9.834;2024-02-15T02:02:08;14.10;99.90
75824;DHT22;64457;51.976;9.834;2024-02-15T02:04:40;14.20;99.90
75824;DHT22;64457;51.976;9.834;2024-02-15T02:07:08;14.40;99.90
75824;DHT22;64457;51.976;9.834;2024-02-15T02:09:36;14.30;99.90
75824;DHT22;64457;51.976;9.834;2024-02-15T02:12:04;14.50;99.90
75824;DHT22;64457;51.976;9.834;2024-02-15T02:14:33;14.40;99.90
75824;DHT22;64457;51.976;9.834;2024-02-15T02:17:11;14.40;99.90
75824;DHT22;64457;51.976;9.834;2024-02-15T02:19:41;14.50;99.90
75824;DHT22;64457;51.976;9.834;2024-02-15T02:22:10;14.40;99.90
75824;DHT22;64457;51.976;9.834;2024-02-15T02:24:54;14.40;99.90
75824;DHT22;64457;51.976;9.834;2024-02-15T02:27:27;14.60;99.90
75824;DHT22;64457;51.976;9.834;2024-02-15T02:29:56;14.70;99.90
75824;DHT22;64457;51.976;9.834;2024-02-15T02:32:25;14.80;99.90
75824;DHT22;64457;51.976;9.834;2024-02-15T02:34:53;14.80;99.90
75824;DHT22;64457;51.976;9.834;2024-02-15T02:37:23;15.00;99.90
75824;DHT22;64457;51.976;9.834;2024-02-15T02:39:51;15.00;99.90
75824;DHT22;64457;51.976;9.834;2024-02-15T02:42:22;15.00;99.90
75824;DHT22;64457;51.976;9.834;2024-02-15T02:44:51;14.80;99.90
75824;DHT22;64457;51.976;9.834;2024-02-15T02:47:18;14.90;99.90
75824;DHT22;64457;51.976;9.834;2024-02-15T02:49:46;15.00;99.90
75824;DHT22;64457;51.976;9.834;2024-02-15T02:52:15;14.90;99.90
75824;DHT22;64457;51.976;9.834;2024-02-15T02:54:43;14.80;99.90
75824;DHT22;64457;51.976;9.834;2024-02-15T02:57:11;14.80;99.90
75824;DHT22;64457;51.976;9.834;2024-02-15T02:59:41;14.80;99.90
75824;DHT22;64457;51.976;9.834;2024-02-15T03:02:08;14.70;99.90
75824;DHT22;64457;51.976;9.834;2024-02-15T03:04:36;14.80;99.90
75824;DHT22;64457;51.976;9.834;2024-02-15T03:07:04;14.50;99.90
75824;DHT22;64457;51.976;9.834;2024-02-15T03:09:32;14.40;99.90
75824;DHT22;64457;51.976;9.834;2024-02-15T03:12:00;14.50;99.90
75824;DHT22;64457;51.976;9.834;2024-02-15T03:14:27;14.50;99.90
75824;DHT22;64457;51.976;9.834;2024-02-15T03:16:57;14.60;99.90
75824;DHT22;64457;51.976;9.834;2024-02-15T03:19:25;14.80;99.90
75824;DHT22;64457;51.976;9.834;2024-02-15T03:21:52;15.00;99.90
75824;DHT22;64457;51.976;9.834;2024-02-15T03:24:19;15.00;99.90
75824;DHT22;64457;51.976;9.834;2024-02-15T03:26:47;15.10;99.90
75824;DHT22;64457;51.976;9.834;2024-02-15T03:29:14;15.00;99.90
75824;DHT22;64457;51.976;9.834;2024-02-15T03:31:42;14.80;99.90
75824;DHT22;64457;51.976;9.834;2024-02-15T03:34:12;14.90;99.90
75824;DHT22;64457;51.976;9.834;2024-02-15T03:36:41;15.00;99.90
75824;DHT22;64457;51.976;9.834;2024-02-15T03:39:08;15.00;99.90
75824;DHT22;64457;51.976;9.834;2024-02-15T03:41:36;15.00;99.90
75824;DHT22;64457;51.976;9.834;2024-02-15T03:44:04;14.80;99.90
75824;DHT22;64457;51.976;9.834;2024-02-15T03:46:31;14.80;99.90
75824;DHT22;64457;51.976;9.834;2024-02-15T03:48:59;14.90;99.90
75824;DHT22;64457;51.976;9.834;2024-02-15T03:51:28;15.00;99.90
75824;DHT22;64457;51.976;9.834;2024-02-15T03:53:57;15.10;99.90
75824;DHT22;64457;51.976;9.834;2024-02-15T03:56:25;15.10;99.90
75824;DHT22;64457;51.976;9.834;2024-02-15T03:58:54;15.10;99.90
75824;DHT22;64457;51.976;9.834;2024-02-15T04:01:22;15.20;99.90
75824;DHT22;64457;51.976;9.834;2024-02-15T04:03:49;14.90;99.90
75824;DHT22;64457;51.976;9.834;2024-02-15T04:06:17;14.70;99.90
75824;DHT22;64457;51.976;9.834;2024-02-15T04:08:47;14.70;99.90
75824;DHT22;64457;51.976;9.834;2024-02-15T04:11:18;14.60;99.90
75824;DHT22;64457;51.976;9.834;2024-02-15T04:13:45;14.80;99.90
75824;DHT22;64457;51.976;9.834;2024-02-15T04:16:13;15.00;99.90
75824;DHT22;64457;51.976;9.834;2024-02-15T04:18:42;15.20;99.90
75824;DHT22;64457;51.976;9.834;2024-02-15T04:21:11;15.30;99.90
75824;DHT22;64457;51.976;9.834;2024-02-15T04:23:39;15.40;99.90
75824;DHT22;64457;51.976;9.834;2024-02-15T04:26:09;15.50;99.90
75824;DHT22;64457;51.976;9.834;2024-02-15T04:28:38;15.40;99.90
75824;DHT22;64457;51.976;9.834;2024-02-15T04:31:05;15.30;99.90
75824;DHT22;64457;51.976;9.834;2024-02-15T04:33:34;15.40;99.90
75824;DHT22;64457;51.976;9.834;2024-02-15T04:36:02;15.20;99.90
75824;DHT22;64457;51.976;9.834;2024-02-15T04:38:32;15.20;99.90
75824;DHT22;64457;51.976;9.834;2024-02-15T04:41:00;15.30;99.90
75824;DHT22;64457;51.976;9.834;2024-02-15T04:43:31;15.30;99.90
75824;DHT22;64457;51.976;9.834;2024-02-15T04:45:59;15.40;99.90
75824;DHT22;64457;51.976;9.834;2024-02-15T04:48:28;15.40;99.90
75824;DHT22;64457;51.976;9.834;2024-02-15T04:50:55;15.00;99.90
75824;DHT22;64457;51.976;9.834;2024-02-15T04:53:25;15.10;99.90
75824;DHT22;64457;51.976;9.834;2024-02-15T04:55:56;15.20;99.90
75824;DHT22;64457;51.976;9.834;2024-02-15T04:58:26;15.20;99.90
75824;DHT22;64457;51.976;9.834;2024-02-15T05:00:56;15.20;99.90
75824;DHT22;64457;51.976;9.834;2024-02-15T05:03:25;15.30;99.90
75824;DHT22;64457;51.976;9.834;2024-02-15T05:05:53;15.50;99.90
75824;DHT22;64457;51.976;9.834;2024-02-15T05:08:20;15.50;99.90
75824;DHT22;64457;51.976;9.834;2024-02-15T05:10:48;15.50;99.90
75824;DHT22;64457;51.976;9.834;2024-02-15T05:13:17;15.40;99.90
75824;DHT22;64457;51.976;9.834;2024-02-15T05:15:45;15.40;99.90
75824;DHT22;64457;51.976;9.834;2024-02-15T05:18:13;15.40;99.90
75824;DHT22;64457;51.976;9.834;2024-02-15T05:20:42;15.40;99.90
75824;DHT22;64457;51.976;9.834;2024-02-15T05:23:10;15.50;99.90
75824;DHT22;64457;51.976;9.834;2024-02-15T05:25:38;15.60;99.90
75824;DHT22;64457;51.976;9.834;2024-02-15T05:28:07;15.70;99.90
75824;DHT22;64457;51.976;9.834;2024-02-15T05:30:35;15.60;99.90
75824;DHT22;64457;51.976;9.834;2024-02-15T05:33:05;15.60;99.90
75824;DHT22;64457;51.976;9.834;2024-02-15T05:35:37;15.40;99.90
75824;DHT22;64457;51.976;9.834;2024-02-15T05:38:07;15.50;99.90
75824;DHT22;64457;51.976;9.834;2024-02-15T05:40:37;15.60;99.90
75824;DHT22;64457;51.976;9.834;2024-02-15T05:43:05;15.60;99.90
75824;DHT22;64457;51.976;9.834;2024-02-15T05:45:32;15.80;99.90
75824;DHT22;64457;51.976;9.834;2024-02-15T05:48:00;15.70;99.90
75824;DHT22;64457;51.976;9.834;2024-02-15T05:50:40;15.70;99.90
75824;DHT22;64457;51.976;9.834;2024-02-15T05:53:09;15.80;99.90
75824;DHT22;64457;51.976;9.834;2024-02-15T05:55:36;15.90;99.90
75824;DHT22;64457;51.976;9.834;2024-02-15T05:58:06;15.80;99.90
75824;DHT22;64457;51.976;9.834;2024-02-15T06:00:37;15.80;99.90
75824;DHT22;64457;51.976;9.834;2024-02-15T06:03:16;15.90;99.90
75824;DHT22;64457;51.976;9.834;2024-02-15T06:05:46;15.90;99.90
75824;DHT22;64457;51.976;9.834;2024-02-15T06:08:15;15.90;99.90
75824;DHT22;64457;51.976;9.834;2024-02-15T06:10:45;16.00;99.90
75824;DHT22;64457;51.976;9.834;2024-02-15T06:13:13;16.00;99.90
75824;DHT22;64457;51.976;9.834;2024-02-15T06:15:40;16.10;99.90
75824;DHT22;64457;51.976;9.834;2024-02-15T06:18:12;16.00;99.90
75824;DHT22;64457;51.976;9.834;2024-02-15T06:20:42;16.00;99.90
75824;DHT22;64457;51.976;9.834;2024-02-15T06:23:12;15.90;99.90
75824;DHT22;64457;51.976;9.834;2024-02-15T06:25:40;15.80;99.90
75824;DHT22;64457;51.976;9.834;2024-02-15T06:28:07;15.70;99.90
75824;DHT22;64457;51.976;9.834;2024-02-15T06:30:45;15.60;99.90
75824;DHT22;64457;51.976;9.834;2024-02-15T06:33:30;15.40;99.90
75824;DHT22;64457;51.976;9.834;2024-02-15T06:36:15;15.30;99.90
75824;DHT22;64457;51.976;9.834;2024-02-15T06:39:04;15.30;99.90
75824;DHT22;64457;51.976;9.834;2024-02-15T06:41:49;15.30;99.90
75824;DHT22;64457;51.976;9.834;2024-02-15T06:44:17;15.20;99.90
75824;DHT22;64457;51.976;9.834;2024-02-15T06:46:45;15.30;99.90
75824;DHT22;64457;51.976;9.834;2024-02-15T06:49:13;15.30;99.90
75824;DHT22;64457;51.976;9.834;2024-02-15T06:51:40;15.40;99.90
75824;DHT22;64457;51.976;9.834;2024-02-15T06:54:11;15.50;99.90
75824;DHT22;64457;51.976;9.834;2024-02-15T06:56:38;15.50;99.90
75824;DHT22;64457;51.976;9.834;2024-02-15T06:59:06;15.30;99.90
75824;DHT22;64457;51.976;9.834;2024-02-15T07:01:36;15.20;99.90
75824;DHT22;64457;51.976;9.834;2024-02-15T07:04:04;15.30;99.90
75824;DHT22;64457;51.976;9.834;2024-02-15T07:06:33;15.50;99.90
75824;DHT22;64457;51.976;9.834;2024-02-15T07:09:03;15.60;99.90
75824;DHT22;64457;51.976;9.834;2024-02-15T07:11:33;15.70;99.90
75824;DHT22;64457;51.976;9.834;2024-02-15T07:14:01;15.70;99.90
75824;DHT22;64457;51.976;9.834;2024-02-15T07:16:30;15.70;99.90
75824;DHT22;64457;51.976;9.834;2024-02-15T07:18:59;15.60;99.90
75824;DHT22;64457;51.976;9.834;2024-02-15T07:21:28;15.70;99.90
75824;DHT22;64457;51.976;9.834;2024-02-15T07:23:58;15.70;99.90
75824;DHT22;64457;51.976;9.834;2024-02-15T07:26:25;15.80;99.90
75824;DHT22;64457;51.976;9.834;2024-02-15T07:29:01;15.90;99.90
75824;DHT22;64457;51.976;9.834;2024-02-15T07:31:32;16.00;99.90
75824;DHT22;64457;51.976;9.834;2024-02-15T07:34:04;16.00;99.90
75824;DHT22;64457;51.976;9.834;2024-02-15T07:36:32;15.90;99.90
75824;DHT22;64457;51.976;9.834;2024-02-15T07:39:00;16.00;99.90
75824;DHT22;64457;51.976;9.834;2024-02-15T07:41:29;16.20;99.90
75824;DHT22;64457;51.976;9.834;2024-02-15T07:44:00;16.10;99.90
75824;DHT22;64457;51.976;9.834;2024-02-15T07:46:27;16.20;99.90
75824;DHT22;64457;51.976;9.834;2024-02-15T07:48:56;16.20;99.90
75824;DHT22;64457;51.976;9.834;2024-02-15T07:51:26;16.30;99.90
75824;DHT22;64457;51.976;9.834;2024-02-15T07:53:55;16.30;99.90
75824;DHT22;64457;51.976;9.834;2024-02-15T07:56:23;16.30;99.90
75824;DHT22;64457;51.976;9.834;2024-02-15T07:58:54;16.40;99.90
75824;DHT22;64457;51.976;9.834;2024-02-15T08:01:24;16.50;99.90
75824;DHT22;64457;51.976;9.834;2024-02-15T08:03:52;16.50;99.90
75824;DHT22;64457;51.976;9.834;2024-02-15T08:06:23;16.50;99.90
75824;DHT22;64457;51.976;9.834;2024-02-15T08:08:53;16.50;99.90
75824;DHT22;64457;51.976;9.834;2024-02-15T08:11:22;16.50;99.90
75824;DHT22;64457;51.976;9.834;2024-02-15T08:13:52;16.70;99.90
75824;DHT22;64457;51.976;9.834;2024-02-15T08:16:25;16.80;99.90
75824;DHT22;64457;51.976;9.834;2024-02-15T08:18:55;16.80;99.90
75824;DHT22;64457;51.976;9.834;2024-02-15T08:21:30;16.60;99.90
75824;DHT22;64457;51.976;9.834;2024-02-15T08:24:01;16.70;99.90
75824;DHT22;64457;51.976;9.834;2024-02-15T08:26:35;16.70;99.90
75824;DHT22;64457;51.976;9.834;2024-02-15T08:29:05;16.90;99.90
75824;DHT22;64457;51.976;9.834;2024-02-15T08:31:36;16.60;99.90
75824;DHT22;64457;51.976;9.834;2024-02-15T08:34:05;16.80;99.90
75824;DHT22;64457;51.976;9.834;2024-02-15T08:36:36;16.80;99.90
75824;DHT22;64457;51.976;9.834;2024-02-15T08:39:05;16.80;99.90
75824;DHT22;64457;51.976;9.834;2024-02-15T08:41:34;16.60;99.90
75824;DHT22;64457;51.976;9.834;2024-02-15T08:44:02;16.30;99.90
75824;DHT22;64457;51.976;9.834;2024-02-15T08:46:37;16.40;99.90
75824;DHT22;64457;51.976;9.834;2024-02-15T08:49:05;16.40;99.90
75824;DHT22;64457;51.976;9.834;2024-02-15T08:51:32;16.60;99.90
75824;DHT22;64457;51.976;9.834;2024-02-15T08:54:01;16.70;99.90
75824;DHT22;64457;51.976;9.834;2024-02-15T08:56:29;16.80;99.90
75824;DHT22;64457;51.976;9.834;2024-02-15T08:58:59;16.60;99.90
75824;DHT22;64457;51.976;9.834;2024-02-15T09:01:26;16.70;99.90
75824;DHT22;64457;51.976;9.834;2024-02-15T09:03:57;16.70;99.90
75824;DHT22;64457;51.976;9.834;2024-02-15T09:06:25;16.80;99.90
75824;DHT22;64457;51.976;9.834;2024-02-15T09:08:52;16.50;99.90
75824;DHT22;64457;51.976;9.834;2024-02-15T09:11:27;16.50;99.90
75824;DHT22;64457;51.976;9.834;2024-02-15T09:13:55;16.60;99.90
75824;DHT22;64457;51.976;9.834;2024-02-15T09:16:24;16.60;99.90
75824;DHT22;64457;51.976;9.834;2024-02-15T09:18:51;16.50;99.90
75824;DHT22;64457;51.976;9.834;2024-02-15T09:21:23;16.40;99.90
75824;DHT22;64457;51.976;9.834;2024-02-15T09:23:52;16.50;99.90
75824;DHT22;64457;51.976;9.834;2024-02-15T09:26:19;16.60;99.90
75824;DHT22;64457;51.976;9.834;2024-02-15T09:28:46;16.80;99.90
75824;DHT22;64457;51.976;9.834;2024-02-15T09:31:14;16.90;99.90
75824;DHT22;64457;51.976;9.834;2024-02-15T09:33:42;16.90;99.90
75824;DHT22;64457;51.976;9.834;2024-02-15T09:36:09;17.00;99.90
75824;DHT22;64457;51.976;9.834;2024-02-15T09:38:39;17.10;99.90
75824;DHT22;64457;51.976;9.834;2024-02-15T09:41:06;16.90;99.90
75824;DHT22;64457;51.976;9.834;2024-02-15T09:43:35;16.80;99.90
75824;DHT22;64457;51.976;9.834;2024-02-15T09:46:03;16.80;99.90
75824;DHT22;64457;51.976;9.834;2024-02-15T09:48:32;16.90;99.90
75824;DHT22;64457;51.976;9.834;2024-02-15T09:51:01;16.70;99.90
75824;DHT22;64457;51.976;9.834;2024-02-15T09:53:30;16.60;99.90
75824;DHT22;64457;51.976;9.834;2024-02-15T09:56:00;16.70;99.90
75824;DHT22;64457;51.976;9.834;2024-02-15T09:58:30;16.50;99.90
75824;DHT22;64457;51.976;9.834;2024-02-15T10:01:01;16.40;99.90
75824;DHT22;64457;51.976;9.834;2024-02-15T10:03:32;16.70;99.90
75824;DHT22;64457;51.976;9.834;2024-02-15T10:06:00;17.10;99.90
75824;DHT22;64457;51.976;9.834;2024-02-15T10:08:29;17.40;99.90
75824;DHT22;64457;51.976;9.834;2024-02-15T10:11:08;17.30;99.90
75824;DHT22;64457;51.976;9.834;2024-02-15T10:13:36;17.40;99.90
75824;DHT22;64457;51.976;9.834;2024-02-15T10:16:14;17.30;99.90
75824;DHT22;64457;51.976;9.834;2024-02-15T10:18:42;17.00;99.90
75824;DHT22;64457;51.976;9.834;2024-02-15T10:21:09;16.90;99.90
75824;DHT22;64457;51.976;9.834;2024-02-15T10:23:37;17.10;99.90
75824;DHT22;64457;51.976;9.834;2024-02-15T10:26:20;17.30;99.90
75824;DHT22;64457;51.976;9.834;2024-02-15T10:29:05;17.70;99.90
75824;DHT22;64457;51.976;9.834;2024-02-15T10:31:35;18.00;99.90
75824;DHT22;64457;51.976;9.834;2024-02-15T10:34:04;18.00;99.90
75824;DHT22;64457;51.976;9.834;2024-02-15T10:36:33;18.00;99.90
75824;DHT22;64457;51.976;9.834;2024-02-15T10:39:11;18.10;99.90
75824;DHT22;64457;51.976;9.834;2024-02-15T10:41:45;18.20;99.90
75824;DHT22;64457;51.976;9.834;2024-02-15T10:44:18;18.20;99.90
75824;DHT22;64457;51.976;9.834;2024-02-15T10:46:47;18.40;99.90
75824;DHT22;64457;51.976;9.834;2024-02-15T10:49:18;18.10;99.90
75824;DHT22;64457;51.976;9.834;2024-02-15T10:51:50;18.10;99.90
75824;DHT22;64457;51.976;9.834;2024-02-15T10:54:34;18.10;99.90
75824;DHT22;64457;51.976;9.834;2024-02-15T10:57:11;18.20;99.90
75824;DHT22;64457;51.976;9.834;2024-02-15T10:59:47;18.30;99.90
75824;DHT22;64457;51.976;9.834;2024-02-15T11:02:30;18.30;99.90
75824;DHT22;64457;51.976;9.834;2024-02-15T11:05:04;18.40;99.90
75824;DHT22;64457;51.976;9.834;2024-02-15T11:07:35;18.40;99.90
75824;DHT22;64457;51.976;9.834;2024-02-15T11:10:04;18.30;99.90
75824;DHT22;64457;51.976;9.834;2024-02-15T11:12:35;18.10;99.90
75824;DHT22;64457;51.976;9.834;2024-02-15T11:15:04;18.20;99.90
75824;DHT22;64457;51.976;9.834;2024-02-15T11:17:45;18.00;99.90
75824;DHT22;64457;51.976;9.834;2024-02-15T11:20:49;17.80;99.90
75824;DHT22;64457;51.976;9.834;2024-02-15T11:23:25;18.10;99.90
75824;DHT22;64457;51.976;9.834;2024-02-15T11:25:54;18.10;99.90
75824;DHT22;64457;51.976;9.834;2024-02-15T11:28:39;17.80;99.90
75824;DHT22;64457;51.976;9.834;2024-02-15T11:31:10;17.60;99.90
75824;DHT22;64457;51.976;9.834;2024-02-15T11:33:39;17.60;99.90
75824;DHT22;64457;51.976;9.834;2024-02-15T11:36:11;17.60;99.90
75824;DHT22;64457;51.976;9.834;2024-02-15T11:38:40;18.00;99.90
75824;DHT22;64457;51.976;9.834;2024-02-15T11:41:10;18.40;99.90
75824;DHT22;64457;51.976;9.834;2024-02-15T11:43:50;18.80;99.90
75824;DHT22;64457;51.976;9.834;2024-02-15T11:46:22;18.90;99.90
75824;DHT22;64457;51.976;9.834;2024-02-15T11:48:52;19.00;99.90
75824;DHT22;64457;51.976;9.834;2024-02-15T11:51:29;19.20;99.90
75824;DHT22;64457;51.976;9.834;2024-02-15T11:54:05;19.20;99.80
75824;DHT22;64457;51.976;9.834;2024-02-15T11:56:53;18.80;99.90
75824;DHT22;64457;51.976;9.834;2024-02-15T11:59:38;18.50;99.90
75824;DHT22;64457;51.976;9.834;2024-02-15T12:02:19;18.10;99.90
75824;DHT22;64457;51.976;9.834;2024-02-15T12:05:04;17.90;99.90
75824;DHT22;64457;51.976;9.834;2024-02-15T12:07:50;17.70;99.90
75824;DHT22;64457;51.976;9.834;2024-02-15T12:10:34;17.40;99.90
75824;DHT22;64457;51.976;9.834;2024-02-15T12:13:20;17.10;99.90
75824;DHT22;64457;51.976;9.834;2024-02-15T12:16:07;16.90;99.90
75824;DHT22;64457;51.976;9.834;2024-02-15T12:19:04;16.70;99.90
75824;DHT22;64457;51.976;9.834;2024-02-15T12:21:31;16.60;99.90
75824;DHT22;64457;51.976;9.834;2024-02-15T12:23:59;16.60;99.90
75824;DHT22;64457;51.976;9.834;2024-02-15T12:26:27;16.40;99.90
75824;DHT22;64457;51.976;9.834;2024-02-15T12:28:57;16.40;99.90
75824;DHT22;64457;51.976;9.834;2024-02-15T12:31:32;16.40;99.90
75824;DHT22;64457;51.976;9.834;2024-02-15T12:34:05;16.30;99.90
75824;DHT22;64457;51.976;9.834;2024-02-15T12:36:34;16.20;99.90
75824;DHT22;64457;51.976;9.834;2024-02-15T12:39:06;16.00;99.90
75824;DHT22;64457;51.976;9.834;2024-02-15T12:41:40;16.00;99.90
75824;DHT22;64457;51.976;9.834;2024-02-15T12:44:08;16.10;99.90
75824;DHT22;64457;51.976;9.834;2024-02-15T12:46:38;16.20;99.90
75824;DHT22;64457;51.976;9.834;2024-02-15T12:49:08;16.30;99.90
75824;DHT22;64457;51.976;9.834;2024-02-15T12:51:39;16.20;99.90
75824;DHT22;64457;51.976;9.834;2024-02-15T12:54:10;16.20;99.90
75824;DHT22;64457;51.976;9.834;2024-02-15T12:56:40;16.10;99.90
75824;DHT22;64457;51.976;9.834;2024-02-15T12:59:08;16.00;99.90
75824;DHT22;64457;51.976;9.834;2024-02-15T13:01:39;15.90;99.90
75824;DHT22;64457;51.976;9.834;2024-02-15T13:04:07;16.00;99.90
75824;DHT22;64457;51.976;9.834;2024-02-15T13:06:35;16.00;99.90
75824;DHT22;64457;51.976;9.834;2024-02-15T13:09:03;15.90;99.90
75824;DHT22;64457;51.976;9.834;2024-02-15T13:11:32;15.60;99.90
75824;DHT22;64457;51.976;9.834;2024-02-15T13:13:59;15.60;99.90
75824;DHT22;64457;51.976;9.834;2024-02-15T13:16:30;15.80;99.90
75824;DHT22;64457;51.976;9.834;2024-02-15T13:18:59;15.90;99.90
75824;DHT22;64457;51.976;9.834;2024-02-15T13:21:27;15.70;99.90
75824;DHT22;64457;51.976;9.834;2024-02-15T13:23:56;16.00;99.90
75824;DHT22;64457;51.976;9.834;2024-02-15T13:26:24;16.20;99.90
75824;DHT22;64457;51.976;9.834;2024-02-15T13:28:52;16.00;99.90
75824;DHT22;64457;51.976;9.834;2024-02-15T13:31:20;16.10;99.90
75824;DHT22;64457;51.976;9.834;2024-02-15T13:33:48;16.00;99.90
75824;DHT22;64457;51.976;9.834;2024-02-15T13:36:17;16.00;99.90
75824;DHT22;64457;51.976;9.834;2024-02-15T13:38:46;16.10;99.90
75824;DHT22;64457;51.976;9.834;2024-02-15T13:41:17;16.20;99.90
75824;DHT22;64457;51.976;9.834;2024-02-15T13:43:44;16.30;99.90
75824;DHT22;64457;51.976;9.834;2024-02-15T13:46:12;16.40;99.90
75824;DHT22;64457;51.976;9.834;2024-02-15T13:48:40;16.50;99.90
75824;DHT22;64457;51.976;9.834;2024-02-15T13:51:07;16.50;99.90
75824;DHT22;64457;51.976;9.834;2024-02-15T13:53:36;16.50;99.90
75824;DHT22;64457;51.976;9.834;2024-02-15T13:56:05;16.70;99.90
75824;DHT22;64457;51.976;9.834;2024-02-15T13:58:33;16.90;99.90
75824;DHT22;64457;51.976;9.834;2024-02-15T14:01:01;17.10;99.90
75824;DHT22;64457;51.976;9.834;2024-02-15T14:03:31;17.10;99.90
75824;DHT22;64457;51.976;9.834;2024-02-15T14:05:59;17.20;99.90
75824;DHT22;64457;51.976;9.834;2024-02-15T14:08:27;17.20;99.90
75824;DHT22;64457;51.976;9.834;2024-02-15T14:10:56;17.30;99.90
75824;DHT22;64457;51.976;9.834;2024-02-15T14:13:24;17.40;99.90
75824;DHT22;64457;51.976;9.834;2024-02-15T14:15:52;17.60;99.90
75824;DHT22;64457;51.976;9.834;2024-02-15T14:18:21;17.80;99.90
75824;DHT22;64457;51.976;9.834;2024-02-15T14:20:49;17.60;99.90
75824;DHT22;64457;51.976;9.834;2024-02-15T14:23:18;17.60;99.90
75824;DHT22;64457;51.976;9.834;2024-02-15T14:25:45;17.20;99.90
75824;DHT22;64457;51.976;9.834;2024-02-15T14:28:15;16.90;99.90
75824;DHT22;64457;51.976;9.834;2024-02-15T14:30:43;16.80;99.90
75824;DHT22;64457;51.976;9.834;2024-02-15T14:33:28;17.00;99.90
75824;DHT22;64457;51.976;9.834;2024-02-15T14:35:55;17.00;99.90
75824;DHT22;64457;51.976;9.834;2024-02-15T14:38:25;17.10;99.90
75824;DHT22;64457;51.976;9.834;2024-02-15T14:40:52;17.20;99.90
75824;DHT22;64457;51.976;9.834;2024-02-15T14:43:23;17.20;99.90
75824;DHT22;64457;51.976;9.834;2024-02-15T14:45:51;17.30;99.90
75824;DHT22;64457;51.976;9.834;2024-02-15T14:48:18;17.40;99.90
75824;DHT22;64457;51.976;9.834;2024-02-15T14:50:46;17.40;99.90
75824;DHT22;64457;51.976;9.834;2024-02-15T14:53:16;17.30;99.90
75824;DHT22;64457;51.976;9.834;2024-02-15T14:55:48;17.30;99.90
75824;DHT22;64457;51.976;9.834;2024-02-15T14:58:17;17.30;99.90
75824;DHT22;64457;51.976;9.834;2024-02-15T15:00:47;17.30;99.90
75824;DHT22;64457;51.976;9.834;2024-02-15T15:03:16;17.30;99.90
75824;DHT22;64457;51.976;9.834;2024-02-15T15:05:43;17.30;99.90
75824;DHT22;64457;51.976;9.834;2024-02-15T15:08:28;17.40;99.90
75824;DHT22;64457;51.976;9.834;2024-02-15T15:11:13;17.30;99.90
75824;DHT22;64457;51.976;9.834;2024-02-15T15:13:58;17.30;99.90
75824;DHT22;64457;51.976;9.834;2024-02-15T15:16:27;17.20;99.90
75824;DHT22;64457;51.976;9.834;2024-02-15T15:18:56;17.30;99.90
75824;DHT22;64457;51.976;9.834;2024-02-15T15:21:23;17.30;99.90
75824;DHT22;64457;51.976;9.834;2024-02-15T15:23:53;17.20;99.90
75824;DHT22;64457;51.976;9.834;2024-02-15T15:26:21;17.10;99.90
75824;DHT22;64457;51.976;9.834;2024-02-15T15:28:49;16.90;99.90
75824;DHT22;64457;51.976;9.834;2024-02-15T15:31:16;17.00;99.90
75824;DHT22;64457;51.976;9.834;2024-02-15T15:33:47;16.90;99.90
75824;DHT22;64457;51.976;9.834;2024-02-15T15:36:14;16.80;99.90
75824;DHT22;64457;51.976;9.834;2024-02-15T15:38:45;16.80;99.90
75824;DHT22;64457;51.976;9.834;2024-02-15T15:41:12;16.80;99.90
75824;DHT22;64457;51.976;9.834;2024-02-15T15:43:39;16.80;99.90
75824;DHT22;64457;51.976;9.834;2024-02-15T15:46:12;17.00;99.90
75824;DHT22;64457;51.976;9.834;2024-02-15T15:48:39;17.20;99.90